• Join FlightAware (Why Join?)
  • Login
  • US Flag 
10:28AM EST


 

Airport Tracker/Info


-or-


 

Live Flight TrackerFlight Track Log ✈ KAP910 ✈ 06-May-2013 ✈ KHYA - KLEB

Flight Track Log - Related Links

Times and Time Zones

All times are in EDT time to prevent confusion due to time zone crossing. See the KAP910 flight status page for this flight to view local times or setup timezone preferences in your user account.

Time Position Orientation Groundspeed Altitude Reporting Facility
EDT Latitude Longitude Course Direction KTS MPH feet Rate Location/Type
07:32AM 41.6832 -70.6655 280° West  Level FlightAware Approximate
07:33AM 41.6834 -70.7322 270° West  Level FlightAware Approximate
07:33AM 41.6531 -70.5536 275° West 161 185 6,100  Level Boston Center
07:33AM 41.6642 -70.5839 296° West 175 201 6,400 240 Climbing Boston Center
07:34AM 41.6834 -70.7990 270° West  Level FlightAware Approximate
07:34AM 41.7042 -70.6161 329° Northwest 172 198 6,500  Level Boston Center
07:35AM 41.6833 -70.8658 270° West  Level FlightAware Approximate
07:36AM 41.6875 -70.9324 275° West  Level FlightAware Approximate
07:37AM 41.6916 -70.9989 275° West  Level FlightAware Approximate
07:37AM 41.8167 -70.7167 326° Northwest 159 183 7,600  Level KA90
07:38AM 41.6957 -71.0655 275° West  Level FlightAware Approximate
07:38AM 41.8500 -70.7500 323° Northwest 160 184 8,000  Level KA90
07:39AM 41.8833 -70.7667 340° North 166 191 8,400 300 Climbing KA90
07:40AM 41.9333 -70.8000 334° Northwest 170 196 8,600 60 Climbing KA90
07:41AM 41.9667 -70.8500 312° West 180 207 8,600  Level KA90
07:42AM 42.0167 -70.8833 334° Northwest 174 200 8,600  Level KA90
07:43AM 42.0500 -70.9167 323° Northwest 173 199 8,600  Level KA90
07:44AM 42.1000 -70.9333 346° North 171 197 8,600  Level KA90
07:45AM 42.1333 -70.9833 312° West 173 199 8,600  Level KA90
07:47AM 42.1781 -71.0219 327° Northwest  Level Estimated
07:47AM 42.2167 -71.0500 327° Northwest 173 199 8,600  Level KA90
07:48AM 42.2667 -71.0833 334° Northwest 170 196 8,600  Level KA90
07:49AM 42.3000 -71.1167 324° Northwest 174 200 8,600  Level KA90
07:50AM 42.3500 -71.1500 334° Northwest 170 196 8,600  Level KA90
07:51AM 42.3833 -71.1833 324° Northwest 172 198 8,600  Level KA90
07:52AM 42.4167 -71.2167 324° Northwest 171 197 8,600  Level KA90
07:53AM 42.4500 -71.2500 324° Northwest 173 199 8,600  Level KA90
07:54AM 42.5000 -71.3000 324° Northwest 172 198 8,600  Level KA90
07:55AM 42.5333 -71.3167 340° North 172 198 8,600  Level KA90
07:56AM 42.5667 -71.3500 324° Northwest 171 197 8,600  Level KA90
07:57AM 42.6167 -71.3833 334° Northwest 172 198 8,600  Level KA90
07:58AM 42.6500 -71.4333 312° West 171 197 8,600  Level KA90
07:59AM 42.7000 -71.4667 334° Northwest 171 197 8,600  Level KA90
08:00AM 42.7333 -71.5000 324° Northwest 170 196 8,600  Level KA90
08:01AM 42.7667 -71.5333 324° Northwest 171 197 8,600  Level KA90
08:02AM 42.8167 -71.5667 334° Northwest 171 197 8,600  Level KA90
08:03AM 42.8500 -71.6000 324° Northwest 172 198 8,600  Level KA90
08:04AM 42.8833 -71.6333 324° Northwest 173 199 8,600  Level KA90
08:05AM 42.9333 -71.6833 324° Northwest 173 199 8,600 -120 Level KA90
08:06AM 42.9667 -71.7000 340° North 175 201 8,400 -360 Descending KA90
08:08AM 43.0508 -71.7839 324° Northwest 191 220 7,600 -420 Descending Boston Center
08:09AM 43.0969 -71.8258 326° Northwest 186 214 7,300 -360 Descending Boston Center
08:10AM 43.1367 -71.8625 326° Northwest 186 214 6,900 -300 Descending Boston Center
08:11AM 43.1828 -71.8992 330° Northwest 186 214 6,700 -300 Descending Boston Center
08:12AM 43.2203 -71.9358 325° Northwest 186 214 6,300 -420 Descending Boston Center
08:14AM 43.3061 -72.0150 326° Northwest 186 214 5,600 -360 Descending Boston Center
08:15AM 43.3500 -72.0575 325° Northwest 181 208 5,300 -300 Descending Boston Center
08:16AM 43.3878 -72.0972 323° Northwest 181 208 5,000 -360 Descending Boston Center
08:17AM 43.4294 -72.1400 323° Northwest 181 208 4,600 -420 Descending Boston Center
08:19AM 43.4877 -72.1897 328° Northwest  Level FlightAware Approximate
08:26AM 43.6167 -72.3000 324° Northwest  Level FlightAware Approximate
08:27AM 43.6261 -72.3042 324° Northwest  Level Estimated
08:28AM 43.6261 -72.3042 324° Northwest  Level Estimated
08:29AM 43.6261 -72.3042 324° Northwest  Level Estimated
08:30AM 43.6261 -72.3042 324° Northwest  Level Estimated
08:31AM 43.6261 -72.3042 324° Northwest  Level Estimated
08:32AM 43.6261 -72.3042 324° Northwest  Level Estimated
08:33AM 43.6261 -72.3042 324° Northwest  Level Estimated
08:34AM 43.6261 -72.3042 324° Northwest  Level Estimated
08:35AM 43.6261 -72.3042 324° Northwest  Level Estimated
08:36AM 43.6261 -72.3042 324° Northwest  Level Estimated
08:37AM 43.6261 -72.3042 324° Northwest  Level Estimated
08:38AM 43.6261 -72.3042 324° Northwest  Level Estimated
08:39AM 43.6261 -72.3042 324° Northwest  Level Estimated
08:40AM 43.6261 -72.3042 324° Northwest  Level Estimated
08:41AM 43.6261 -72.3042 324° Northwest  Level Estimated
08:42AM 43.6261 -72.3042 324° Northwest  Level Estimated
08:43AM 43.6261 -72.3042 324° Northwest  Level Estimated